createdAt,value
2018-07-17T00:00:01.181Z,77.46
2018-07-17T00:01:01.213Z,77.75
2018-07-17T00:02:01.241Z,78.81
2018-07-17T00:03:01.267Z,79.58
2018-07-17T00:04:01.298Z,79.49
2018-07-17T00:05:01.321Z,79.54
2018-07-17T00:06:01.353Z,80.12
2018-07-17T00:07:01.377Z,80.12
2018-07-17T00:08:01.403Z,79.74
2018-07-17T00:09:01.437Z,80.22
2018-07-17T00:10:01.463Z,79.93
2018-07-17T00:11:01.483Z,80.12
2018-07-17T00:12:01.513Z,80.31
2018-07-17T00:13:01.537Z,80.60
2018-07-17T00:14:01.571Z,80.69
2018-07-17T00:15:01.601Z,80.22
2018-07-17T00:16:01.641Z,80.02
2018-07-17T00:17:01.645Z,79.83
2018-07-17T00:18:01.677Z,79.25
2018-07-17T00:19:01.703Z,79.44
2018-07-17T00:20:01.733Z,79.64
2018-07-17T00:21:01.757Z,79.54
2018-07-17T00:22:01.782Z,79.44
2018-07-17T00:23:01.811Z,79.83
2018-07-17T00:24:01.840Z,79.93
2018-07-17T00:25:01.866Z,79.64
2018-07-17T00:26:01.895Z,79.16
2018-07-17T00:27:01.919Z,79.54
2018-07-17T00:28:01.947Z,79.35
2018-07-17T00:29:01.979Z,79.25
2018-07-17T00:30:02.004Z,78.96
2018-07-17T00:31:02.032Z,79.06
2018-07-17T00:32:02.057Z,79.16
2018-07-17T00:33:02.083Z,79.06
2018-07-17T00:34:02.115Z,79.83
2018-07-17T00:35:02.138Z,78.96
2018-07-17T00:36:02.165Z,79.25
2018-07-17T00:37:02.193Z,79.16
2018-07-17T00:38:02.221Z,79.44
2018-07-17T00:39:02.247Z,79.54
2018-07-17T00:40:02.276Z,79.83
2018-07-17T00:41:02.304Z,79.54
2018-07-17T00:42:02.336Z,79.79
2018-07-17T00:43:02.359Z,80.18
2018-07-17T00:44:02.385Z,80.08
2018-07-17T00:45:02.405Z,80.08
2018-07-17T00:46:02.438Z,80.37
2018-07-17T00:47:02.460Z,80.76
2018-07-17T00:48:02.520Z,80.76
2018-07-17T00:49:02.520Z,80.08
2018-07-17T00:50:02.545Z,79.89
2018-07-17T00:51:02.571Z,79.60
2018-07-17T00:52:02.599Z,80.18
2018-07-17T00:53:02.625Z,80.27
2018-07-17T00:54:02.652Z,80.76
2018-07-17T00:55:02.684Z,80.08
2018-07-17T00:56:02.715Z,79.74
2018-07-17T00:57:02.735Z,80.22
2018-07-17T00:58:02.763Z,80.18
2018-07-17T00:59:02.789Z,80.08
2018-07-17T01:00:02.817Z,79.89
2018-07-17T01:01:02.869Z,80.94
2018-07-17T01:02:02.865Z,81.24
2018-07-17T01:03:02.899Z,81.43
2018-07-17T01:04:02.920Z,81.52
2018-07-17T01:05:02.951Z,81.91
2018-07-17T01:06:02.978Z,82.49
2018-07-17T01:07:03.059Z,82.83
2018-07-17T01:08:03.031Z,83.03
2018-07-17T01:09:03.055Z,83.51
2018-07-17T01:10:03.090Z,83.51
2018-07-17T01:11:03.107Z,84.09
2018-07-17T01:12:03.143Z,84.18
2018-07-17T01:13:03.165Z,84.09
2018-07-17T01:14:03.190Z,84.47
2018-07-17T01:15:03.221Z,84.56
2018-07-17T01:16:03.249Z,84.56
2018-07-17T01:17:03.269Z,85.43
2018-07-17T01:18:03.301Z,85.82
2018-07-17T01:19:03.326Z,85.82
2018-07-17T01:20:03.357Z,86.54
2018-07-17T01:21:03.381Z,86.49
2018-07-17T01:22:03.407Z,86.92
2018-07-17T01:23:03.435Z,86.44
2018-07-17T01:24:03.460Z,85.09
2018-07-17T01:25:03.487Z,84.12
2018-07-17T01:26:03.516Z,84.70
2018-07-17T01:27:03.541Z,84.22
2018-07-17T01:28:03.571Z,84.32
2018-07-17T01:29:03.596Z,83.74
2018-07-17T01:30:03.619Z,83.74
2018-07-17T01:31:03.647Z,84.03
2018-07-17T01:32:03.674Z,84.32
2018-07-17T01:33:03.707Z,83.80
2018-07-17T01:34:03.732Z,83.89
2018-07-17T01:35:03.756Z,83.89
2018-07-17T01:36:03.785Z,83.89
2018-07-17T01:37:03.810Z,83.89
2018-07-17T01:38:03.846Z,83.70
2018-07-17T01:39:03.867Z,83.41
2018-07-17T01:40:03.891Z,83.89
2018-07-17T01:41:03.923Z,83.80
2018-07-17T01:42:03.943Z,82.83
2018-07-17T01:43:03.984Z,82.83
2018-07-17T01:44:03.995Z,82.26
2018-07-17T01:45:04.025Z,82.54
2018-07-17T01:46:04.048Z,82.35
2018-07-17T01:47:04.075Z,81.91
2018-07-17T01:48:04.102Z,81.68
2018-07-17T01:49:04.134Z,81.96
2018-07-17T01:50:04.153Z,82.83
2018-07-17T01:51:04.190Z,82.93
2018-07-17T01:52:04.210Z,83.12
2018-07-17T01:53:04.238Z,83.12
2018-07-17T01:54:04.268Z,83.99
2018-07-17T01:55:04.296Z,83.80
2018-07-17T01:56:04.318Z,83.41
2018-07-17T01:57:04.347Z,82.93
2018-07-17T01:58:04.370Z,82.35
2018-07-17T01:59:04.400Z,82.83
2018-07-17T02:00:04.424Z,82.74
2018-07-17T02:01:04.450Z,83.03
2018-07-17T02:02:04.474Z,82.16
2018-07-17T02:03:04.501Z,82.35
2018-07-17T02:04:04.532Z,82.83
2018-07-17T02:05:04.559Z,83.41
2018-07-17T02:06:04.581Z,83.03
2018-07-17T02:07:04.606Z,83.28
2018-07-17T02:08:04.638Z,83.95
2018-07-17T02:09:04.664Z,83.41
2018-07-17T02:10:04.696Z,83.61
2018-07-17T02:11:04.714Z,83.80
2018-07-17T02:12:04.742Z,83.85
2018-07-17T02:13:04.768Z,84.23
2018-07-17T02:14:04.796Z,84.05
2018-07-17T02:15:04.824Z,84.33
2018-07-17T02:16:04.852Z,84.53
2018-07-17T02:17:04.874Z,84.14
2018-07-17T02:18:04.900Z,84.43
2018-07-17T02:19:04.930Z,84.43
2018-07-17T02:20:04.962Z,84.53
2018-07-17T02:21:04.984Z,84.23
2018-07-17T02:22:05.010Z,84.62
2018-07-17T02:23:05.037Z,84.62
2018-07-17T02:24:05.064Z,85.44
2018-07-17T02:25:05.090Z,85.78
2018-07-17T02:26:05.116Z,86.51
2018-07-17T02:27:05.135Z,86.79
2018-07-17T02:28:05.164Z,86.89
2018-07-17T02:29:05.190Z,86.99
2018-07-17T02:30:05.221Z,87.18
2018-07-17T02:31:05.247Z,87.56
2018-07-17T02:32:05.272Z,87.56
2018-07-17T02:33:05.301Z,87.37
2018-07-17T02:34:05.329Z,86.99
2018-07-17T02:35:05.352Z,87.56
2018-07-17T02:36:05.384Z,86.74
2018-07-17T02:37:05.406Z,86.26
2018-07-17T02:38:05.440Z,85.68
2018-07-17T02:39:05.467Z,85.10
2018-07-17T02:40:05.490Z,84.81
2018-07-17T02:41:05.510Z,84.81
2018-07-17T02:42:05.536Z,85.20
2018-07-17T02:43:05.560Z,85.30
2018-07-17T02:44:05.590Z,84.72
2018-07-17T02:45:05.616Z,84.91
2018-07-17T02:46:05.714Z,84.81
2018-07-17T02:47:05.674Z,84.81
2018-07-17T02:48:05.698Z,85.30
2018-07-17T02:49:05.724Z,86.35
2018-07-17T02:50:05.750Z,85.87
2018-07-17T02:51:05.772Z,86.60
2018-07-17T02:52:05.806Z,86.51
2018-07-17T02:53:05.835Z,86.79
2018-07-17T02:54:05.853Z,87.18
2018-07-17T02:55:05.883Z,86.99
2018-07-17T02:56:05.909Z,87.22
2018-07-17T02:57:05.932Z,87.41
2018-07-17T02:58:05.959Z,87.51
2018-07-17T02:59:05.984Z,87.70
2018-07-17T03:00:06.014Z,87.51
2018-07-17T03:01:06.043Z,88.09
2018-07-17T03:02:06.070Z,87.60
2018-07-17T03:03:06.091Z,87.66
2018-07-17T03:04:06.122Z,87.76
2018-07-17T03:05:06.145Z,88.04
2018-07-17T03:06:06.177Z,88.14
2018-07-17T03:07:06.203Z,87.95
2018-07-17T03:08:06.220Z,88.62
2018-07-17T03:09:06.261Z,89.20
2018-07-17T03:10:06.287Z,89.20
2018-07-17T03:11:06.300Z,89.39
2018-07-17T03:12:06.332Z,89.29
2018-07-17T03:13:06.356Z,89.68
2018-07-17T03:14:06.385Z,90.16
2018-07-17T03:15:06.408Z,89.58
2018-07-17T03:16:06.436Z,89.87
2018-07-17T03:17:06.464Z,90.16
2018-07-17T03:18:06.487Z,90.26
2018-07-17T03:19:06.516Z,90.73
2018-07-17T03:20:06.542Z,90.16
2018-07-17T03:21:06.564Z,90.26
2018-07-17T03:22:06.589Z,91.03
2018-07-17T03:23:06.616Z,91.13
2018-07-17T03:24:06.643Z,90.06
2018-07-17T03:25:06.673Z,90.55
2018-07-17T03:26:06.698Z,90.45
2018-07-17T03:27:06.720Z,90.35
2018-07-17T03:28:06.755Z,89.78
2018-07-17T03:29:06.776Z,89.68
2018-07-17T03:30:06.820Z,89.87
2018-07-17T03:31:06.823Z,89.78
2018-07-17T03:32:06.853Z,89.78
2018-07-17T03:33:06.881Z,90.55
2018-07-17T03:34:06.906Z,89.87
2018-07-17T03:35:06.930Z,89.87
2018-07-17T03:36:06.966Z,90.26
2018-07-17T03:37:06.984Z,89.78
2018-07-17T03:38:07.012Z,90.16
2018-07-17T03:39:07.040Z,90.26
2018-07-17T03:40:07.063Z,90.35
2018-07-17T03:41:07.090Z,90.35
2018-07-17T03:42:07.118Z,90.55
2018-07-17T03:43:07.141Z,90.16
2018-07-17T03:44:07.172Z,90.26
2018-07-17T03:45:07.192Z,90.26
2018-07-17T03:46:07.219Z,90.83
2018-07-17T03:47:07.244Z,90.73
2018-07-17T03:48:07.270Z,91.41
2018-07-17T03:49:07.304Z,91.51
2018-07-17T03:50:07.325Z,91.13
2018-07-17T03:51:07.359Z,91.89
2018-07-17T03:52:07.380Z,92.18
2018-07-17T03:53:07.400Z,92.18
2018-07-17T03:54:07.431Z,92.66
2018-07-17T03:55:07.456Z,93.33
2018-07-17T03:56:07.485Z,93.33
2018-07-17T03:57:07.508Z,93.33
2018-07-17T03:58:07.536Z,92.95
2018-07-17T03:59:07.567Z,92.85
2018-07-17T04:00:07.600Z,92.57
2018-07-17T04:01:07.614Z,92.66
2018-07-17T04:02:07.640Z,92.95
2018-07-17T04:03:07.670Z,92.66
2018-07-17T04:04:07.707Z,92.18
2018-07-17T04:05:07.718Z,91.99
2018-07-17T04:06:07.743Z,91.80
2018-07-17T04:07:07.770Z,91.51
2018-07-17T04:08:07.793Z,91.80
2018-07-17T04:09:07.824Z,91.60
2018-07-17T04:10:07.850Z,92.28
2018-07-17T04:11:07.874Z,92.76
2018-07-17T04:12:07.908Z,91.89
2018-07-17T04:13:07.925Z,91.70
2018-07-17T04:14:07.954Z,90.73
2018-07-17T04:15:07.980Z,90.06
2018-07-17T04:16:08.006Z,89.87
2018-07-17T04:17:08.034Z,89.20
2018-07-17T04:18:08.070Z,88.91
2018-07-17T04:19:08.083Z,88.24
2018-07-17T04:20:08.116Z,88.33
2018-07-17T04:21:08.139Z,88.53
2018-07-17T04:22:08.164Z,88.14
2018-07-17T04:23:08.191Z,88.43
2018-07-17T04:24:08.220Z,88.53
2018-07-17T04:25:08.241Z,89.01
2018-07-17T04:26:08.269Z,89.29
2018-07-17T04:27:08.338Z,89.39
2018-07-17T04:28:08.320Z,89.49
2018-07-17T04:29:08.352Z,89.87
2018-07-17T04:30:08.373Z,89.49
2018-07-17T04:31:08.401Z,89.49
2018-07-17T04:32:08.425Z,90.11
2018-07-17T04:33:08.514Z,89.87
2018-07-17T04:34:08.480Z,89.68
2018-07-17T04:35:08.508Z,89.01
2018-07-17T04:36:08.532Z,89.78
2018-07-17T04:37:08.554Z,89.43
2018-07-17T04:38:08.582Z,88.09
2018-07-17T04:39:08.606Z,87.46
2018-07-17T04:40:08.640Z,87.51
2018-07-17T04:41:08.664Z,87.12
2018-07-17T04:42:08.688Z,86.35
2018-07-17T04:43:08.721Z,86.65
2018-07-17T04:44:08.767Z,86.74
2018-07-17T04:45:08.770Z,86.65
2018-07-17T04:46:08.791Z,86.65
2018-07-17T04:47:08.822Z,86.65
2018-07-17T04:48:08.850Z,86.93
2018-07-17T04:49:08.872Z,86.83
2018-07-17T04:50:08.900Z,87.22
2018-07-17T04:51:08.932Z,87.22
2018-07-17T04:52:08.952Z,86.93
2018-07-17T04:53:08.981Z,86.74
2018-07-17T04:54:09.004Z,86.74
2018-07-17T04:55:09.029Z,86.55
2018-07-17T04:56:09.057Z,86.55
2018-07-17T04:57:09.086Z,87.41
2018-07-17T04:58:09.108Z,86.74
2018-07-17T04:59:09.140Z,86.55
2018-07-17T05:00:09.164Z,86.45
2018-07-17T05:01:09.188Z,86.74
2018-07-17T05:02:09.211Z,86.74
2018-07-17T05:03:09.244Z,86.74
2018-07-17T05:04:09.270Z,86.83
2018-07-17T05:05:09.294Z,86.16
2018-07-17T05:06:09.321Z,86.26
2018-07-17T05:07:09.348Z,85.34
2018-07-17T05:08:09.374Z,86.30
2018-07-17T05:09:09.396Z,86.11
2018-07-17T05:10:09.424Z,85.68
2018-07-17T05:11:09.448Z,86.01
2018-07-17T05:12:09.474Z,85.72
2018-07-17T05:13:09.508Z,85.24
2018-07-17T05:14:09.535Z,85.24
2018-07-17T05:15:09.559Z,85.05
2018-07-17T05:16:09.580Z,84.66
2018-07-17T05:17:09.605Z,84.47
2018-07-17T05:18:09.633Z,84.18
2018-07-17T05:19:09.659Z,83.89
2018-07-17T05:20:09.721Z,84.28
2018-07-17T05:21:09.715Z,83.70
2018-07-17T05:22:09.741Z,83.89
2018-07-17T05:23:09.767Z,83.89
2018-07-17T05:24:09.790Z,83.80
2018-07-17T05:25:09.817Z,83.80
2018-07-17T05:26:09.852Z,83.99
2018-07-17T05:27:09.870Z,83.31
2018-07-17T05:28:09.895Z,83.22
2018-07-17T05:29:09.925Z,83.41
2018-07-17T05:30:09.951Z,83.31
2018-07-17T05:31:09.973Z,83.41
2018-07-17T05:32:09.998Z,83.41
2018-07-17T05:33:10.028Z,83.61
2018-07-17T05:34:10.058Z,83.41
2018-07-17T05:35:10.103Z,83.99
2018-07-17T05:36:10.111Z,83.70
2018-07-17T05:37:10.134Z,84.12
2018-07-17T05:38:10.158Z,83.61
2018-07-17T05:39:10.182Z,83.89
2018-07-17T05:40:10.214Z,83.07
2018-07-17T05:41:10.244Z,83.84
2018-07-17T05:42:10.264Z,83.74
2018-07-17T05:43:10.293Z,84.12
2018-07-17T05:44:10.317Z,84.70
2018-07-17T05:45:10.343Z,83.94
2018-07-17T05:46:10.378Z,83.74
2018-07-17T05:47:10.398Z,83.16
2018-07-17T05:48:10.425Z,83.55
2018-07-17T05:49:10.452Z,84.12
2018-07-17T05:50:10.478Z,84.22
2018-07-17T05:51:10.519Z,84.03
2018-07-17T05:52:10.526Z,83.84
2018-07-17T05:53:10.558Z,83.94
2018-07-17T05:54:10.582Z,83.74
2018-07-17T05:55:10.616Z,83.64
2018-07-17T05:56:10.638Z,83.84
2018-07-17T05:57:10.670Z,83.84
2018-07-17T05:58:10.700Z,84.03
2018-07-17T05:59:10.712Z,84.22
2018-07-17T06:00:10.743Z,83.74
2018-07-17T06:01:10.775Z,84.22
2018-07-17T06:02:10.798Z,84.32
2018-07-17T06:03:10.867Z,84.80
2018-07-17T06:04:10.855Z,84.70
2018-07-17T06:05:10.874Z,84.42
2018-07-17T06:06:10.918Z,84.70
2018-07-17T06:07:10.933Z,84.52
2018-07-17T06:08:10.959Z,84.52
2018-07-17T06:09:10.984Z,83.94
2018-07-17T06:10:11.066Z,83.94
2018-07-17T06:11:11.037Z,84.03
2018-07-17T06:12:11.064Z,83.74
2018-07-17T06:13:11.094Z,83.74
2018-07-17T06:14:11.116Z,84.22
2018-07-17T06:15:11.144Z,84.27
2018-07-17T06:16:11.177Z,84.17
2018-07-17T06:17:11.197Z,84.46
2018-07-17T06:18:11.227Z,84.46
2018-07-17T06:19:11.262Z,83.69
2018-07-17T06:20:11.277Z,83.30
2018-07-17T06:21:11.306Z,83.40
2018-07-17T06:22:11.340Z,83.69
2018-07-17T06:23:11.360Z,84.07
2018-07-17T06:24:11.389Z,83.59
2018-07-17T06:25:11.423Z,83.30
2018-07-17T06:26:11.443Z,83.20
2018-07-17T06:27:11.467Z,83.20
2018-07-17T06:28:11.498Z,83.40
2018-07-17T06:29:11.517Z,83.50
2018-07-17T06:30:11.549Z,83.01
2018-07-17T06:31:11.573Z,82.53
2018-07-17T06:32:11.598Z,83.30
2018-07-17T06:33:11.629Z,82.82
2018-07-17T06:34:11.654Z,82.92
2018-07-17T06:35:11.682Z,82.72
2018-07-17T06:36:11.713Z,82.82
2018-07-17T06:37:11.733Z,82.82
2018-07-17T06:38:11.756Z,82.72
2018-07-17T06:39:11.843Z,82.57
2018-07-17T06:40:11.819Z,82.48
2018-07-17T06:41:11.840Z,82.96
2018-07-17T06:42:11.869Z,82.38
2018-07-17T06:43:11.891Z,82.76
2018-07-17T06:44:11.926Z,82.28
2018-07-17T06:45:11.950Z,82.48
2018-07-17T06:46:11.980Z,82.76
2018-07-17T06:47:12.003Z,81.99
2018-07-17T06:48:12.033Z,82.57
2018-07-17T06:49:12.057Z,82.57
2018-07-17T06:50:12.131Z,82.18
2018-07-17T06:51:12.109Z,82.18
2018-07-17T06:52:12.137Z,82.03
2018-07-17T06:53:12.167Z,81.32
2018-07-17T06:54:12.186Z,81.22
2018-07-17T06:55:12.221Z,81.07
2018-07-17T06:56:12.247Z,81.02
2018-07-17T06:57:12.271Z,80.87
2018-07-17T06:58:12.301Z,80.20
2018-07-17T06:59:12.328Z,80.00
2018-07-17T07:00:12.367Z,79.81
2018-07-17T07:01:12.437Z,79.72
2018-07-17T07:02:12.408Z,78.46
2018-07-17T07:03:12.434Z,77.01
2018-07-17T07:04:12.464Z,76.63
2018-07-17T07:05:12.562Z,76.63
2018-07-17T07:06:12.516Z,76.05
2018-07-17T07:07:12.544Z,75.09
2018-07-17T07:08:12.575Z,74.99
2018-07-17T07:09:12.596Z,76.15
2018-07-17T07:10:12.627Z,75.57
2018-07-17T07:11:12.677Z,75.31
2018-07-17T07:12:12.677Z,74.31
2018-07-17T07:13:12.707Z,73.58
2018-07-17T07:14:12.733Z,73.58
2018-07-17T07:15:12.766Z,73.48
2018-07-17T07:16:12.789Z,73.77
2018-07-17T07:17:12.811Z,73.48
2018-07-17T07:18:12.842Z,73.00
2018-07-17T07:19:12.867Z,74.25
2018-07-17T07:20:12.901Z,74.16
2018-07-17T07:21:12.924Z,73.67
2018-07-17T07:22:12.954Z,73.86
2018-07-17T07:23:13.027Z,73.67
2018-07-17T07:24:13.013Z,74.25
2018-07-17T07:25:13.036Z,72.52
2018-07-17T07:26:13.063Z,72.80
2018-07-17T07:27:13.087Z,72.55
2018-07-17T07:28:13.117Z,73.09
2018-07-17T07:29:13.144Z,72.55
2018-07-17T07:30:13.171Z,72.16
2018-07-17T07:31:13.197Z,72.06
2018-07-17T07:32:13.223Z,72.26
2018-07-17T07:33:13.249Z,72.06
2018-07-17T07:34:13.290Z,72.26
2018-07-17T07:35:13.303Z,72.84
2018-07-17T07:36:13.333Z,72.36
2018-07-17T07:37:13.378Z,73.03
2018-07-17T07:38:13.388Z,71.78
2018-07-17T07:39:13.419Z,72.26
2018-07-17T07:40:13.445Z,71.10
2018-07-17T07:41:13.479Z,72.06
2018-07-17T07:42:13.492Z,71.91
2018-07-17T07:43:13.520Z,72.68
2018-07-17T07:44:13.551Z,72.30
2018-07-17T07:45:13.579Z,71.52
2018-07-17T07:46:13.604Z,71.04
2018-07-17T07:47:13.640Z,71.81
2018-07-17T07:48:13.661Z,71.91
2018-07-17T07:49:13.720Z,72.30
2018-07-17T07:50:13.714Z,70.65
2018-07-17T07:51:13.745Z,70.56
2018-07-17T07:52:13.768Z,72.20
2018-07-17T07:53:13.796Z,73.16
2018-07-17T07:54:13.827Z,73.36
2018-07-17T07:55:13.854Z,72.58
2018-07-17T07:56:13.881Z,72.68
2018-07-17T07:57:13.912Z,71.52
2018-07-17T07:58:13.941Z,71.81
2018-07-17T07:59:13.963Z,72.00
2018-07-17T08:00:13.993Z,72.39
2018-07-17T08:01:14.020Z,72.39
2018-07-17T08:02:14.041Z,73.20
2018-07-17T08:03:14.079Z,71.94
2018-07-17T08:04:14.100Z,70.30
2018-07-17T08:05:14.127Z,71.17
2018-07-17T08:06:14.153Z,70.78
2018-07-17T08:07:14.187Z,70.88
2018-07-17T08:08:14.208Z,71.36
2018-07-17T08:09:14.239Z,72.33
2018-07-17T08:10:14.265Z,70.98
2018-07-17T08:11:14.293Z,70.68
2018-07-17T08:12:14.439Z,70.40
2018-07-17T08:13:14.352Z,69.53
2018-07-17T08:14:14.374Z,66.24
2018-07-17T08:15:14.403Z,67.11
2018-07-17T08:16:14.454Z,68.75
2018-07-17T08:17:14.455Z,67.88
2018-07-17T08:18:14.488Z,67.01
2018-07-17T08:19:14.511Z,65.20
2018-07-17T08:20:14.542Z,65.30
2018-07-17T08:21:14.564Z,65.17
2018-07-17T08:22:14.590Z,66.47
2018-07-17T08:23:14.629Z,67.43
2018-07-17T08:24:14.733Z,68.69
2018-07-17T08:25:14.671Z,68.49
2018-07-17T08:26:14.709Z,68.01
2018-07-17T08:27:14.737Z,64.53
2018-07-17T08:28:14.759Z,63.37
2018-07-17T08:29:14.791Z,64.92
2018-07-17T08:30:14.819Z,64.43
2018-07-17T08:31:14.842Z,63.66
2018-07-17T08:32:14.870Z,63.56
2018-07-17T08:33:14.903Z,62.50
2018-07-17T08:34:14.928Z,62.11
2018-07-17T08:35:14.953Z,61.63
2018-07-17T08:36:14.977Z,61.63
2018-07-17T08:37:15.012Z,61.82
2018-07-17T08:38:15.034Z,61.63
2018-07-17T08:39:15.067Z,60.85
2018-07-17T08:40:15.091Z,60.66
2018-07-17T08:41:15.119Z,61.15
2018-07-17T08:42:15.144Z,61.63
2018-07-17T08:43:15.248Z,60.85
2018-07-17T08:44:15.197Z,59.89
2018-07-17T08:45:15.229Z,60.27
2018-07-17T08:46:15.255Z,60.66
2018-07-17T08:47:15.291Z,60.21
2018-07-17T08:48:15.315Z,59.69
2018-07-17T08:49:15.362Z,59.14
2018-07-17T08:50:15.367Z,59.43
2018-07-17T08:51:15.393Z,58.65
2018-07-17T08:52:15.427Z,58.17
2018-07-17T08:53:15.453Z,58.85
2018-07-17T08:54:15.483Z,58.17
2018-07-17T08:55:15.508Z,58.17
2018-07-17T08:56:15.537Z,57.88
2018-07-17T08:57:15.560Z,59.43
2018-07-17T08:58:15.590Z,60.30
2018-07-17T08:59:15.613Z,60.11
2018-07-17T09:00:15.643Z,58.88
2018-07-17T09:01:15.667Z,57.43
2018-07-17T09:02:15.698Z,58.69
2018-07-17T09:03:15.731Z,56.75
2018-07-17T09:04:15.747Z,55.00
2018-07-17T09:05:15.783Z,54.33
2018-07-17T09:06:15.811Z,55.10
2018-07-17T09:07:15.839Z,56.94
2018-07-17T09:08:15.867Z,58.11
2018-07-17T09:09:15.899Z,56.65
2018-07-17T09:10:15.925Z,56.94
2018-07-17T09:11:15.946Z,54.81
2018-07-17T09:12:15.978Z,54.13
2018-07-17T09:13:16.006Z,54.23
2018-07-17T09:14:16.033Z,54.13
2018-07-17T09:15:16.067Z,54.23
2018-07-17T09:16:16.090Z,53.97
2018-07-17T09:17:16.109Z,54.33
2018-07-17T09:18:16.138Z,54.91
2018-07-17T09:19:16.174Z,53.26
2018-07-17T09:20:16.208Z,52.61
2018-07-17T09:21:16.224Z,53.17
2018-07-17T09:22:16.253Z,53.55
2018-07-17T09:23:16.279Z,52.39
2018-07-17T09:24:16.311Z,51.16
2018-07-17T09:25:16.333Z,51.16
2018-07-17T09:26:16.361Z,51.06
2018-07-17T09:27:16.386Z,50.87
2018-07-17T09:28:16.462Z,51.25
2018-07-17T09:29:16.435Z,52.22
2018-07-17T09:30:16.479Z,52.51
2018-07-17T09:31:16.501Z,52.51
2018-07-17T09:32:16.519Z,53.39
2018-07-17T09:33:16.551Z,50.19
2018-07-17T09:34:16.575Z,49.80
2018-07-17T09:35:16.598Z,50.77
2018-07-17T09:36:16.629Z,50.96
2018-07-17T09:37:16.655Z,50.96
2018-07-17T09:38:16.681Z,50.48
2018-07-17T09:39:16.709Z,50.87
2018-07-17T09:40:16.729Z,51.06
2018-07-17T09:41:16.763Z,50.89
2018-07-17T09:42:16.793Z,50.41
2018-07-17T09:43:16.818Z,50.12
2018-07-17T09:44:16.857Z,49.34
2018-07-17T09:45:16.868Z,49.54
2018-07-17T09:46:16.897Z,51.57
2018-07-17T09:47:16.922Z,50.02
2018-07-17T09:48:16.951Z,47.98
2018-07-17T09:49:16.981Z,47.30
2018-07-17T09:50:17.007Z,47.40
2018-07-17T09:51:17.035Z,47.50
2018-07-17T09:52:17.058Z,46.53
2018-07-17T09:53:17.087Z,47.50
2018-07-17T09:54:17.118Z,49.07
2018-07-17T09:55:17.140Z,48.88
2018-07-17T09:56:17.184Z,48.69
2018-07-17T09:57:17.194Z,49.95
2018-07-17T09:58:17.220Z,49.07
2018-07-17T09:59:17.254Z,48.97
2018-07-17T10:00:17.283Z,49.56
2018-07-17T10:01:17.306Z,48.49
2018-07-17T10:02:17.340Z,48.88
2018-07-17T10:03:17.364Z,49.77
2018-07-17T10:04:17.387Z,51.81
2018-07-17T10:05:17.415Z,51.43
2018-07-17T10:06:17.491Z,50.46
2018-07-17T10:07:17.470Z,50.04
2018-07-17T10:08:17.494Z,49.87
2018-07-17T10:09:17.521Z,52.78
2018-07-17T10:10:17.556Z,52.50
2018-07-17T10:11:17.576Z,52.01
2018-07-17T10:12:17.598Z,50.84
2018-07-17T10:13:17.633Z,47.93
2018-07-17T10:14:17.662Z,47.93
2018-07-17T10:15:17.686Z,49.68
2018-07-17T10:16:17.714Z,49.41
2018-07-17T10:17:17.741Z,48.13
2018-07-17T10:18:17.769Z,48.64
2018-07-17T10:19:17.795Z,49.41
2018-07-17T10:20:17.850Z,47.47
2018-07-17T10:21:17.851Z,48.73
2018-07-17T10:22:17.880Z,47.38
2018-07-17T10:23:17.911Z,48.15
2018-07-17T10:24:17.941Z,47.96
2018-07-17T10:25:17.965Z,47.76
2018-07-17T10:26:17.991Z,46.89
2018-07-17T10:27:18.023Z,47.28
2018-07-17T10:28:18.044Z,48.85
2018-07-17T10:29:18.077Z,47.59
2018-07-17T10:30:18.100Z,49.05
2018-07-17T10:31:18.129Z,48.18
2018-07-17T10:32:18.157Z,49.34
2018-07-17T10:33:18.183Z,46.55
2018-07-17T10:34:18.211Z,46.25
2018-07-17T10:35:18.236Z,46.55
2018-07-17T10:36:18.265Z,49.85
2018-07-17T10:37:18.289Z,46.25
2018-07-17T10:38:18.315Z,46.25
2018-07-17T10:39:18.348Z,47.81
2018-07-17T10:40:18.381Z,47.03
2018-07-17T10:41:18.406Z,46.64
2018-07-17T10:42:18.432Z,47.81
2018-07-17T10:43:18.467Z,45.87
2018-07-17T10:44:18.496Z,45.31
2018-07-17T10:45:18.515Z,45.97
2018-07-17T10:46:18.549Z,50.75
2018-07-17T10:47:18.569Z,47.74
2018-07-17T10:48:18.605Z,45.98
2018-07-17T10:49:18.627Z,44.84
2018-07-17T10:50:18.661Z,43.67
2018-07-17T10:51:18.687Z,43.38
2018-07-17T10:52:18.712Z,45.52
2018-07-17T10:53:18.856Z,45.23
2018-07-17T10:54:18.789Z,43.01
2018-07-17T10:55:18.802Z,41.96
2018-07-17T10:56:18.835Z,43.23
2018-07-17T10:57:18.857Z,43.52
2018-07-17T10:58:18.882Z,43.62
2018-07-17T10:59:18.912Z,41.57
2018-07-17T11:00:18.942Z,41.19
2018-07-17T11:01:18.975Z,41.57
2018-07-17T11:02:18.997Z,40.31
2018-07-17T11:03:19.033Z,40.01
2018-07-17T11:04:19.058Z,40.60
2018-07-17T11:05:19.090Z,40.03
2018-07-17T11:06:19.111Z,41.60
2018-07-17T11:07:19.142Z,43.18
2018-07-17T11:08:19.223Z,42.79
2018-07-17T11:09:19.198Z,42.12
2018-07-17T11:10:19.228Z,40.58
2018-07-17T11:12:20.705Z,39.92
2018-07-17T11:13:19.315Z,40.43
2018-07-17T11:14:19.352Z,39.96
2018-07-17T11:15:19.377Z,39.80
2018-07-17T11:16:22.033Z,38.28
2018-07-17T11:17:19.445Z,35.78
2018-07-17T11:18:19.470Z,34.26
2018-07-17T11:19:19.505Z,32.54
2018-07-17T11:20:19.535Z,29.63
2018-07-17T11:21:19.571Z,28.21
2018-07-17T11:22:22.429Z,27.69
2018-07-17T11:23:19.636Z,26.84
2018-07-17T11:24:19.673Z,27.27
2018-07-17T11:25:19.708Z,27.85
2018-07-17T11:26:19.735Z,26.99
2018-07-17T11:27:19.775Z,26.45
2018-07-17T11:28:19.817Z,27.40
2018-07-17T11:29:19.849Z,27.69
2018-07-17T11:30:19.906Z,28.14
2018-07-17T11:31:19.915Z,30.56
2018-07-17T11:32:19.948Z,32.57
2018-07-17T11:33:19.980Z,33.84
2018-07-17T11:34:20.020Z,33.39
2018-07-17T11:35:20.053Z,34.83
2018-07-17T11:36:20.094Z,34.72
2018-07-17T11:37:20.127Z,36.85
2018-07-17T11:38:20.160Z,37.32
2018-07-17T11:39:20.189Z,37.60
2018-07-17T11:40:20.224Z,37.99
2018-07-17T11:41:20.257Z,36.93
2018-07-17T11:42:20.291Z,37.50
2018-07-17T11:43:20.323Z,34.86
2018-07-17T11:44:20.359Z,32.78
2018-07-17T11:45:20.387Z,34.90
2018-07-17T11:46:20.425Z,34.45
2018-07-17T11:47:20.459Z,34.78
2018-07-17T11:48:20.490Z,33.18
2018-07-17T11:49:20.526Z,31.10
2018-07-17T11:50:20.558Z,29.09
2018-07-17T11:51:20.589Z,27.15
2018-07-17T11:52:20.629Z,30.62
2018-07-17T11:53:20.668Z,29.69
2018-07-17T11:54:20.693Z,29.64
2018-07-17T11:55:20.733Z,30.35
2018-07-17T11:56:20.763Z,30.81
2018-07-17T11:57:20.799Z,31.55
2018-07-17T11:58:20.833Z,29.97
2018-07-17T11:59:21.007Z,28.30
2018-07-17T12:00:20.903Z,31.38
2018-07-17T12:01:20.931Z,32.14
2018-07-17T12:02:20.966Z,34.00
2018-07-17T12:03:21.006Z,34.28
2018-07-17T12:04:21.041Z,33.18
2018-07-17T12:05:21.080Z,33.56
2018-07-17T12:06:21.111Z,31.79
2018-07-17T12:07:21.140Z,29.34
2018-07-17T12:08:21.171Z,26.73
2018-07-17T12:09:21.205Z,25.02
2018-07-17T12:10:21.243Z,23.66
2018-07-17T12:11:21.278Z,22.13
2018-07-17T12:12:21.316Z,20.76
2018-07-17T12:13:21.349Z,20.10
2018-07-17T12:14:21.380Z,21.31
2018-07-17T12:15:21.414Z,21.99
2018-07-17T12:17:49.328Z,19.89
2018-07-17T12:18:49.167Z,21.25
2018-07-17T12:19:49.303Z,19.67
2018-07-17T12:20:49.236Z,20.20
2018-07-17T12:21:49.275Z,23.00
2018-07-17T12:22:49.312Z,24.16
2018-07-17T12:23:49.352Z,24.29
2018-07-17T12:24:49.383Z,24.75
2018-07-17T12:25:49.423Z,26.78
2018-07-17T12:26:49.458Z,27.84
2018-07-17T12:27:49.487Z,27.52
2018-07-17T12:28:49.531Z,24.51
2018-07-17T12:29:49.574Z,22.59
2018-07-17T12:30:49.600Z,21.03
2018-07-17T12:31:49.640Z,19.86
2018-07-17T12:32:49.680Z,20.73
2018-07-17T12:33:49.713Z,21.04
2018-07-17T12:34:49.776Z,22.37
2018-07-17T12:35:49.792Z,23.49
2018-07-17T12:36:49.830Z,24.15
2018-07-17T12:37:49.869Z,25.79
2018-07-17T12:38:49.900Z,27.15
2018-07-17T12:39:49.933Z,27.71
2018-07-17T12:40:49.970Z,29.06
2018-07-17T12:41:50.011Z,30.82
2018-07-17T12:42:50.048Z,28.48
2018-07-17T12:43:50.081Z,25.01
2018-07-17T12:44:50.118Z,24.27
2018-07-17T12:45:50.152Z,24.00
2018-07-17T12:46:50.204Z,23.16
2018-07-17T12:47:50.228Z,23.70
2018-07-17T12:48:50.265Z,25.05
2018-07-17T12:49:50.305Z,27.67
2018-07-17T12:50:50.337Z,28.13
2018-07-17T12:51:50.370Z,28.16
2018-07-17T12:52:50.404Z,25.86
2018-07-17T12:53:50.448Z,24.04
2018-07-17T12:54:50.485Z,21.81